ANA455 RJTT-RJBD
Flight info
| Callsign | ANA455 |
|---|---|
| Flight time | N/A |
| Altitude | 34000 |
| Route | LAXAS Y56 TOHME Y54 KOHWA Y12 RAYJO |
| Aircraft | B738/M-SDE2E3FGHIRWXY/LB1 |
Departure
| Time | N/A |
|---|---|
| Airport | Tokyo Haneda International Airport (RJTT) |
Arrival
| Time | 2026-04-14 17:47 |
|---|---|
| Airport | Nanki Shirahama Airport (RJBD) |
| Time | Latitude | Longitude | Altitude | Speed | Heading |
|---|---|---|---|---|---|
| 2026-04-14 17:22 | 34.77653 | 137.20632 | 33975 ft | 395 kts | 255° |
| 2026-04-14 17:23 | 34.75845 | 137.14339 | 33982 ft | 393 kts | 255° |
| 2026-04-14 17:23 | 34.74039 | 137.08057 | 33978 ft | 394 kts | 255° |
| 2026-04-14 17:24 | 34.72218 | 137.01749 | 33980 ft | 396 kts | 255° |
| 2026-04-14 17:24 | 34.71056 | 136.98673 | 33621 ft | 409 kts | 245° |
| 2026-04-14 17:24 | 34.69447 | 136.95788 | 33027 ft | 414 kts | 239° |
| 2026-04-14 17:25 | 34.67580 | 136.93177 | 32362 ft | 418 kts | 232° |
| 2026-04-14 17:25 | 34.65339 | 136.90880 | 31703 ft | 423 kts | 225° |
| 2026-04-14 17:25 | 34.62998 | 136.88734 | 31184 ft | 419 kts | 224° |
| 2026-04-14 17:25 | 34.60668 | 136.86633 | 30659 ft | 416 kts | 224° |
| 2026-04-14 17:26 | 34.58354 | 136.84544 | 30139 ft | 412 kts | 224° |
| 2026-04-14 17:26 | 34.56068 | 136.82466 | 29527 ft | 409 kts | 224° |
| 2026-04-14 17:26 | 34.53804 | 136.80395 | 28968 ft | 405 kts | 224° |
| 2026-04-14 17:26 | 34.51572 | 136.78346 | 28416 ft | 401 kts | 224° |
| 2026-04-14 17:27 | 34.49362 | 136.76313 | 27882 ft | 396 kts | 224° |
| 2026-04-14 17:27 | 34.47209 | 136.74332 | 27372 ft | 392 kts | 224° |
| 2026-04-14 17:27 | 34.45043 | 136.72340 | 26862 ft | 389 kts | 224° |
| 2026-04-14 17:27 | 34.42901 | 136.70370 | 26349 ft | 385 kts | 223° |
| 2026-04-14 17:28 | 34.40778 | 136.68419 | 25860 ft | 382 kts | 223° |
| 2026-04-14 17:28 | 34.38665 | 136.66478 | 25355 ft | 380 kts | 223° |
| 2026-04-14 17:28 | 34.36563 | 136.64549 | 24855 ft | 378 kts | 223° |
| 2026-04-14 17:28 | 34.34473 | 136.62632 | 24337 ft | 377 kts | 223° |
| 2026-04-14 17:29 | 34.32386 | 136.60721 | 23840 ft | 375 kts | 222° |
| 2026-04-14 17:29 | 34.30311 | 136.58821 | 23290 ft | 374 kts | 222° |
| 2026-04-14 17:29 | 34.28285 | 136.56940 | 22740 ft | 371 kts | 223° |
| 2026-04-14 17:29 | 34.26254 | 136.55032 | 22216 ft | 367 kts | 223° |
| 2026-04-14 17:30 | 34.24250 | 136.53144 | 21724 ft | 364 kts | 223° |
| 2026-04-14 17:30 | 34.22259 | 136.51270 | 21239 ft | 361 kts | 223° |
| 2026-04-14 17:30 | 34.20289 | 136.49417 | 20759 ft | 358 kts | 223° |
| 2026-04-14 17:30 | 34.18328 | 136.47576 | 20282 ft | 355 kts | 223° |
| 2026-04-14 17:31 | 34.16384 | 136.45753 | 19814 ft | 353 kts | 222° |
| 2026-04-14 17:31 | 34.14447 | 136.43937 | 19347 ft | 351 kts | 222° |
| 2026-04-14 17:31 | 34.12522 | 136.42135 | 18858 ft | 350 kts | 222° |
| 2026-04-14 17:31 | 34.10624 | 136.40361 | 18393 ft | 349 kts | 222° |
| 2026-04-14 17:32 | 34.08710 | 136.38572 | 17868 ft | 348 kts | 221° |
| 2026-04-14 17:32 | 34.06802 | 136.36788 | 17373 ft | 345 kts | 221° |
| 2026-04-14 17:32 | 34.04913 | 136.35023 | 16896 ft | 343 kts | 221° |
| 2026-04-14 17:32 | 34.03037 | 136.33270 | 16425 ft | 340 kts | 221° |
| 2026-04-14 17:33 | 34.01170 | 136.31526 | 15974 ft | 338 kts | 221° |
| 2026-04-14 17:33 | 33.99315 | 136.29795 | 15519 ft | 336 kts | 220° |
| 2026-04-14 17:33 | 33.97475 | 136.28078 | 15060 ft | 334 kts | 220° |
| 2026-04-14 17:34 | 33.93840 | 136.24687 | 14161 ft | 332 kts | 220° |
| 2026-04-14 17:34 | 33.92018 | 136.22990 | 13689 ft | 331 kts | 220° |
| 2026-04-14 17:34 | 33.90197 | 136.21294 | 13203 ft | 329 kts | 219° |
| 2026-04-14 17:34 | 33.88392 | 136.19614 | 12727 ft | 327 kts | 219° |
| 2026-04-14 17:35 | 33.86594 | 136.17941 | 12258 ft | 325 kts | 219° |
| 2026-04-14 17:35 | 33.84809 | 136.16283 | 11805 ft | 324 kts | 219° |
| 2026-04-14 17:35 | 33.83095 | 136.14545 | 11352 ft | 321 kts | 228° |
| 2026-04-14 17:35 | 33.81863 | 136.12314 | 10837 ft | 321 kts | 241° |
| 2026-04-14 17:36 | 33.80828 | 136.10000 | 10601 ft | 313 kts | 242° |
| 2026-04-14 17:36 | 33.79830 | 136.07723 | 10441 ft | 303 kts | 242° |
| 2026-04-14 17:36 | 33.78860 | 136.05521 | 10302 ft | 293 kts | 241° |
| 2026-04-14 17:36 | 33.77919 | 136.03401 | 10175 ft | 283 kts | 241° |
| 2026-04-14 17:37 | 33.77002 | 136.01350 | 10062 ft | 274 kts | 241° |
| 2026-04-14 17:37 | 33.76109 | 135.99364 | 9849 ft | 269 kts | 240° |
| 2026-04-14 17:37 | 33.75220 | 135.97392 | 9545 ft | 267 kts | 240° |
| 2026-04-14 17:37 | 33.74338 | 135.95439 | 9243 ft | 265 kts | 240° |
| 2026-04-14 17:38 | 33.73470 | 135.93520 | 8971 ft | 264 kts | 240° |
| 2026-04-14 17:38 | 33.72595 | 135.91590 | 8686 ft | 263 kts | 240° |
| 2026-04-14 17:38 | 33.71724 | 135.89667 | 8396 ft | 262 kts | 239° |
| 2026-04-14 17:38 | 33.70854 | 135.87750 | 8123 ft | 261 kts | 239° |
| 2026-04-14 17:39 | 33.69986 | 135.85838 | 7839 ft | 260 kts | 239° |
| 2026-04-14 17:39 | 33.69121 | 135.83935 | 7551 ft | 260 kts | 239° |
| 2026-04-14 17:39 | 33.68257 | 135.82034 | 7271 ft | 259 kts | 239° |
| 2026-04-14 17:39 | 33.67393 | 135.80135 | 6989 ft | 259 kts | 239° |
| 2026-04-14 17:40 | 33.66531 | 135.78241 | 6706 ft | 259 kts | 238° |
| 2026-04-14 17:40 | 33.65693 | 135.76401 | 6428 ft | 259 kts | 238° |
| 2026-04-14 17:40 | 33.64819 | 135.74480 | 6104 ft | 259 kts | 238° |
| 2026-04-14 17:40 | 33.63958 | 135.72587 | 5815 ft | 257 kts | 238° |
| 2026-04-14 17:41 | 33.63104 | 135.70716 | 5530 ft | 256 kts | 238° |
| 2026-04-14 17:41 | 33.62249 | 135.68843 | 5247 ft | 256 kts | 238° |
| 2026-04-14 17:41 | 33.61390 | 135.66962 | 4956 ft | 257 kts | 238° |
| 2026-04-14 17:41 | 33.60530 | 135.65077 | 4661 ft | 258 kts | 238° |
| 2026-04-14 17:42 | 33.59680 | 135.63217 | 4364 ft | 258 kts | 238° |
| 2026-04-14 17:42 | 33.58829 | 135.61351 | 4212 ft | 252 kts | 238° |
| 2026-04-14 17:42 | 33.57998 | 135.59529 | 4099 ft | 246 kts | 238° |
| 2026-04-14 17:42 | 33.57183 | 135.57748 | 3972 ft | 240 kts | 239° |
| 2026-04-14 17:43 | 33.56392 | 135.56018 | 3887 ft | 234 kts | 239° |
| 2026-04-14 17:43 | 33.55618 | 135.54328 | 3791 ft | 228 kts | 238° |
| 2026-04-14 17:43 | 33.54829 | 135.52614 | 3420 ft | 238 kts | 239° |
| 2026-04-14 17:43 | 33.54116 | 135.50844 | 3260 ft | 236 kts | 256° |
| 2026-04-14 17:44 | 33.54258 | 135.48959 | 3157 ft | 226 kts | 297° |
| 2026-04-14 17:44 | 33.55142 | 135.47470 | 2925 ft | 221 kts | 315° |
| 2026-04-14 17:44 | 33.56225 | 135.46168 | 2621 ft | 219 kts | 321° |
| 2026-04-14 17:44 | 33.57386 | 135.45012 | 2334 ft | 214 kts | 323° |
| 2026-04-14 17:45 | 33.58532 | 135.43915 | 2051 ft | 205 kts | 324° |
| 2026-04-14 17:45 | 33.59603 | 135.42875 | 1775 ft | 192 kts | 323° |
| 2026-04-14 17:45 | 33.60611 | 135.41900 | 1524 ft | 179 kts | 323° |
| 2026-04-14 17:45 | 33.61525 | 135.41015 | 1301 ft | 160 kts | 323° |
| 2026-04-14 17:46 | 33.62337 | 135.40228 | 1132 ft | 145 kts | 323° |
| 2026-04-14 17:46 | 33.63113 | 135.39485 | 986 ft | 144 kts | 322° |
| 2026-04-14 17:46 | 33.63876 | 135.38744 | 825 ft | 143 kts | 321° |
| 2026-04-14 17:46 | 33.64642 | 135.38004 | 673 ft | 141 kts | 320° |
| 2026-04-14 17:47 | 33.65402 | 135.37256 | 437 ft | 141 kts | 322° |
| 2026-04-14 17:47 | 33.66147 | 135.36534 | 308 ft | 129 kts | 322° |
| 2026-04-14 17:47 | 33.66752 | 135.35950 | 307 ft | 90 kts | 321° |
| 2026-04-14 17:47 | 33.66958 | 135.35765 | 304 ft | 9 kts | 308° |
| 2026-04-14 17:48 | 33.66957 | 135.35744 | 305 ft | 2 kts | 221° |
| 2026-04-14 17:48 | 33.66944 | 135.35753 | 306 ft | 5 kts | 134° |
| 2026-04-14 17:48 | 33.66904 | 135.35799 | 305 ft | 10 kts | 140° |